createdAt,value
2023-05-24T00:03:11.534Z,16.48
2023-05-24T00:08:16.977Z,16.35
2023-05-24T00:13:22.464Z,16.26
2023-05-24T00:18:27.966Z,16.16
2023-05-24T00:23:33.590Z,16.05
2023-05-24T00:28:38.970Z,15.98
2023-05-24T00:33:44.459Z,15.93
2023-05-24T00:38:50.477Z,15.90
2023-05-24T00:43:55.824Z,15.84
2023-05-24T00:49:01.828Z,15.82
2023-05-24T00:54:09.382Z,15.86
2023-05-24T00:59:15.340Z,15.84
2023-05-24T01:04:20.844Z,15.84
2023-05-24T01:09:34.164Z,15.76
2023-05-24T01:14:48.763Z,15.68
2023-05-24T01:20:02.395Z,15.58
2023-05-24T01:25:14.252Z,15.48
2023-05-24T01:30:20.728Z,15.41
2023-05-24T01:35:30.329Z,15.33
2023-05-24T01:40:37.378Z,15.29
2023-05-24T01:45:54.111Z,15.33
2023-05-24T01:51:01.436Z,15.39
2023-05-24T01:56:08.988Z,15.35
2023-05-24T02:01:14.832Z,15.24
2023-05-24T02:06:20.448Z,15.20
2023-05-24T02:11:26.126Z,15.17
2023-05-24T02:16:31.679Z,15.11
2023-05-24T02:21:37.350Z,15.02
2023-05-24T02:26:42.808Z,14.88
2023-05-24T02:31:52.085Z,14.82
2023-05-24T02:36:57.748Z,14.83
2023-05-24T02:42:05.920Z,14.87
2023-05-24T02:47:11.349Z,14.84
2023-05-24T02:52:21.602Z,14.83
2023-05-24T02:57:28.795Z,14.75
2023-05-24T03:02:38.479Z,14.72
2023-05-24T03:07:44.955Z,14.78
2023-05-24T03:12:50.797Z,14.86
2023-05-24T03:17:57.183Z,14.99
2023-05-24T03:23:02.824Z,15.12
2023-05-24T03:28:08.606Z,15.26
2023-05-24T03:33:14.035Z,15.37
2023-05-24T03:38:20.358Z,15.48
2023-05-24T03:43:25.985Z,15.59
2023-05-24T03:48:35.312Z,15.67
2023-05-24T03:53:40.644Z,15.74
2023-05-24T03:58:46.202Z,15.80
2023-05-24T04:03:52.591Z,15.83
2023-05-24T04:09:01.124Z,15.88
2023-05-24T04:14:06.959Z,15.91
2023-05-24T04:19:12.602Z,16.02
2023-05-24T04:24:17.994Z,16.15
2023-05-24T04:29:26.647Z,16.26
2023-05-24T04:34:35.956Z,16.42
2023-05-24T04:39:41.774Z,16.60
2023-05-24T04:44:47.444Z,16.73
2023-05-24T04:49:53.520Z,16.84
2023-05-24T04:54:59.058Z,16.96
2023-05-24T05:00:05.588Z,17.08
2023-05-24T05:05:12.679Z,17.27
2023-05-24T05:10:18.260Z,17.44
2023-05-24T05:15:24.918Z,17.63
2023-05-24T05:20:30.378Z,17.94
2023-05-24T05:25:36.030Z,18.22
2023-05-24T05:30:41.766Z,18.62
2023-05-24T05:35:47.557Z,18.95
2023-05-24T05:40:53.036Z,19.24
2023-05-24T05:45:58.583Z,19.66
2023-05-24T05:51:05.499Z,21.53
2023-05-24T05:56:18.167Z,22.18
2023-05-24T06:01:23.866Z,22.05
2023-05-24T06:06:29.426Z,21.98
2023-05-24T06:11:34.820Z,23.43
2023-05-24T06:16:43.799Z,24.76
2023-05-24T06:21:50.730Z,24.73
2023-05-24T06:26:56.741Z,24.44
2023-05-24T06:32:02.416Z,24.70
2023-05-24T06:37:10.486Z,24.64
2023-05-24T06:42:16.053Z,26.05
2023-05-24T06:47:24.449Z,27.27
2023-05-24T06:52:29.985Z,30.55
2023-05-24T06:57:35.325Z,33.58
2023-05-24T07:02:42.029Z,34.71
2023-05-24T07:07:48.162Z,35.89
2023-05-24T07:12:53.507Z,37.56
2023-05-24T07:17:58.962Z,38.96
2023-05-24T07:23:07.017Z,39.18
2023-05-24T07:28:14.275Z,39.03
2023-05-24T07:33:20.059Z,38.90
2023-05-24T07:38:26.418Z,38.81
2023-05-24T07:43:31.988Z,37.95
2023-05-24T07:48:37.569Z,37.29
2023-05-24T07:53:43.326Z,38.23
2023-05-24T07:58:49.282Z,38.55
2023-05-24T08:05:24.152Z,38.00
2023-05-24T08:10:29.647Z,37.45
2023-05-24T08:15:35.240Z,37.41
2023-05-24T08:20:40.982Z,36.30
2023-05-24T08:25:46.990Z,36.77
2023-05-24T08:30:52.778Z,37.47
2023-05-24T08:35:58.269Z,38.33
2023-05-24T08:41:08.459Z,38.91
2023-05-24T08:46:15.465Z,39.33
2023-05-24T08:51:21.686Z,39.86
2023-05-24T08:56:28.804Z,39.46
2023-05-24T09:01:37.953Z,39.40
2023-05-24T09:06:44.650Z,38.42
2023-05-24T09:11:53.591Z,37.79
2023-05-24T09:16:59.851Z,35.92
2023-05-24T09:22:05.916Z,35.61
2023-05-24T09:27:11.582Z,35.65
2023-05-24T09:32:17.557Z,35.09
2023-05-24T09:37:30.971Z,34.89
2023-05-24T09:42:38.383Z,34.47
2023-05-24T09:47:48.269Z,34.39
2023-05-24T09:52:56.129Z,35.05
2023-05-24T09:58:08.394Z,35.29
2023-05-24T10:03:15.353Z,34.55
2023-05-24T10:08:22.346Z,34.25
2023-05-24T10:13:28.429Z,33.30
2023-05-24T10:18:34.486Z,32.57
2023-05-24T10:23:43.156Z,32.29
2023-05-24T10:28:53.113Z,32.82
2023-05-24T10:34:08.007Z,32.91
2023-05-24T10:39:29.874Z,32.80
2023-05-24T10:44:35.668Z,32.06
2023-05-24T10:49:51.446Z,31.43
2023-05-24T10:55:09.586Z,31.18
2023-05-24T11:05:54.797Z,31.27
2023-05-24T11:11:24.536Z,31.92
2023-05-24T11:16:37.881Z,31.97
2023-05-24T11:21:47.051Z,32.57
2023-05-24T11:26:54.002Z,33.55
2023-05-24T11:32:05.359Z,33.80
2023-05-24T11:37:14.450Z,33.26
2023-05-24T11:42:23.619Z,33.61
2023-05-24T11:47:29.216Z,33.62
2023-05-24T11:52:38.517Z,33.81
2023-05-24T11:57:52.706Z,33.98
2023-05-24T12:03:03.023Z,33.74
2023-05-24T12:08:12.482Z,33.66
2023-05-24T12:13:24.158Z,33.49
2023-05-24T12:18:30.244Z,33.23
2023-05-24T12:23:37.211Z,33.15
2023-05-24T12:28:44.100Z,33.22
2023-05-24T12:33:53.498Z,33.04
2023-05-24T12:39:00.461Z,33.04
2023-05-24T12:44:05.998Z,32.78
2023-05-24T12:49:12.328Z,32.62
2023-05-24T12:54:20.199Z,32.61
2023-05-24T12:59:26.234Z,32.65
2023-05-24T13:04:33.913Z,32.32
2023-05-24T13:09:39.698Z,32.23
2023-05-24T13:14:45.417Z,32.21
2023-05-24T13:19:51.249Z,32.06
2023-05-24T13:24:56.775Z,32.07
2023-05-24T13:30:02.554Z,31.97
2023-05-24T13:35:09.160Z,31.47
2023-05-24T13:40:15.345Z,30.88
2023-05-24T13:45:21.650Z,30.05
2023-05-24T13:50:27.163Z,29.22
2023-05-24T13:55:37.835Z,28.50
2023-05-24T14:00:44.091Z,27.86
2023-05-24T14:05:49.978Z,27.41
2023-05-24T14:10:55.645Z,27.09
2023-05-24T14:16:01.310Z,26.75
2023-05-24T14:21:06.926Z,26.53
2023-05-24T14:26:12.620Z,26.34
2023-05-24T14:31:18.407Z,26.07
2023-05-24T14:36:23.960Z,25.78
2023-05-24T14:41:29.634Z,25.61
2023-05-24T14:46:35.125Z,25.48
2023-05-24T14:51:40.930Z,25.34
2023-05-24T14:56:46.646Z,25.24
2023-05-24T15:01:52.539Z,25.06
2023-05-24T15:06:58.117Z,24.78
2023-05-24T15:12:05.182Z,24.56
2023-05-24T15:17:11.577Z,24.30
2023-05-24T15:22:17.209Z,24.07
2023-05-24T15:27:22.906Z,23.81
2023-05-24T15:32:28.251Z,23.76
2023-05-24T15:37:33.859Z,23.70
2023-05-24T15:42:39.612Z,23.64
2023-05-24T15:47:45.358Z,23.58
2023-05-24T15:52:50.961Z,23.48
2023-05-24T15:57:58.344Z,23.27
2023-05-24T16:03:04.161Z,23.00
2023-05-24T16:08:10.577Z,22.73
2023-05-24T16:13:16.807Z,22.54
2023-05-24T16:18:23.506Z,22.39
2023-05-24T16:23:29.520Z,22.25
2023-05-24T16:28:34.996Z,22.23
2023-05-24T16:33:41.313Z,22.18
2023-05-24T16:38:47.021Z,22.13
2023-05-24T16:43:52.737Z,22.07
2023-05-24T16:48:58.834Z,21.99
2023-05-24T16:54:05.150Z,21.83
2023-05-24T16:59:10.606Z,21.59
2023-05-24T17:04:16.441Z,21.41
2023-05-24T17:09:22.469Z,21.28
2023-05-24T17:14:28.239Z,21.15
2023-05-24T17:19:34.363Z,21.00
2023-05-24T17:24:39.992Z,20.76
2023-05-24T17:29:46.009Z,20.57
2023-05-24T17:34:52.823Z,20.40
2023-05-24T17:39:58.536Z,20.23
2023-05-24T17:45:05.312Z,20.12
2023-05-24T17:50:12.319Z,20.02
2023-05-24T17:55:18.402Z,19.96
2023-05-24T18:00:24.249Z,19.92
2023-05-24T18:05:29.994Z,19.87
2023-05-24T18:10:36.526Z,19.78
2023-05-24T18:15:42.566Z,19.68
2023-05-24T18:20:48.571Z,19.56
2023-05-24T18:26:01.409Z,19.43
2023-05-24T18:31:14.744Z,19.29
2023-05-24T18:36:21.077Z,19.22
2023-05-24T18:41:27.092Z,19.18
2023-05-24T18:46:33.843Z,19.14
2023-05-24T18:51:39.409Z,19.03
2023-05-24T18:56:45.673Z,18.92
2023-05-24T19:01:53.121Z,18.76
2023-05-24T19:06:59.857Z,18.58
2023-05-24T19:12:06.402Z,18.47
2023-05-24T19:17:12.945Z,18.41
2023-05-24T19:22:19.386Z,18.33
2023-05-24T19:27:25.427Z,18.24
2023-05-24T19:32:32.188Z,18.13
2023-05-24T19:37:39.359Z,18.01
2023-05-24T19:42:45.382Z,17.92
2023-05-24T19:47:52.285Z,17.88
2023-05-24T19:52:58.360Z,17.87
2023-05-24T19:58:04.333Z,17.85
2023-05-24T20:03:10.254Z,17.80
2023-05-24T20:08:18.157Z,17.71
2023-05-24T20:13:25.016Z,17.63
2023-05-24T20:18:30.951Z,17.59
2023-05-24T20:23:37.207Z,17.59
2023-05-24T20:28:43.887Z,17.57
2023-05-24T20:33:51.642Z,17.50
2023-05-24T20:38:57.439Z,17.35
2023-05-24T20:44:03.127Z,17.22
2023-05-24T20:49:08.664Z,17.15
2023-05-24T20:54:14.121Z,17.11
2023-05-24T20:59:19.559Z,17.06
2023-05-24T21:04:25.050Z,17.01
2023-05-24T21:09:30.940Z,16.94
2023-05-24T21:14:36.876Z,16.84
2023-05-24T21:19:42.409Z,16.80
2023-05-24T21:24:48.167Z,16.79
2023-05-24T21:29:53.783Z,16.80
2023-05-24T21:34:59.226Z,16.76
2023-05-24T21:40:05.988Z,16.72
2023-05-24T21:45:12.881Z,16.68
2023-05-24T21:50:18.631Z,16.66
2023-05-24T21:55:24.495Z,16.62
2023-05-24T22:00:30.599Z,16.56
2023-05-24T22:05:36.133Z,16.48
2023-05-24T22:10:41.618Z,16.40
2023-05-24T22:15:47.247Z,16.31
2023-05-24T22:20:52.771Z,16.19
2023-05-24T22:25:58.338Z,16.07
2023-05-24T22:31:04.386Z,15.93
2023-05-24T22:36:12.401Z,15.78
2023-05-24T22:41:18.160Z,15.65
2023-05-24T22:46:24.211Z,15.58
2023-05-24T22:51:29.877Z,15.56
2023-05-24T22:56:36.161Z,15.53
2023-05-24T23:01:41.623Z,15.44
2023-05-24T23:06:47.459Z,15.33
2023-05-24T23:11:54.691Z,15.21
2023-05-24T23:17:02.713Z,15.12
2023-05-24T23:22:08.233Z,15.06
2023-05-24T23:27:13.899Z,14.95
2023-05-24T23:32:19.486Z,14.82
2023-05-24T23:37:25.007Z,14.70
2023-05-24T23:42:30.857Z,14.61
2023-05-24T23:47:36.376Z,14.56
2023-05-24T23:52:41.768Z,14.47
2023-05-24T23:57:47.642Z,14.34
